This is the latest recevied weather packets stored in our database for station/object ON5MM-5. If no packets are shown the sender has not sent any weather packets the latest 10 day(s).
| Time | Temp. | Humidity | Pressure | Rain* | Wind** | Luminosity | Snow |
|---|---|---|---|---|---|---|---|
| 1778157302 | 14.44° C | 51% | 1017.9 hPa | 0 mm | 0.45 m/s, ° | - | - |
| 1778157003 | 14.44° C | 52% | 1017.8 hPa | 0 mm | 0.45 m/s, ° | - | - |
| 1778156702 | 13.33° C | 56% | 1017.8 hPa | 0 mm | 0.45 m/s, ° | - | - |
| 1778156402 | 13.33° C | 56% | 1017.8 hPa | 0 mm | 1.34 m/s, ° | - | - |
| 1778156102 | 13.33° C | 56% | 1017.8 hPa | 0 mm | 0.89 m/s, ° | - | - |
| 1778155802 | 13.33° C | 62% | 1017.8 hPa | 0 mm | 0 m/s | - | - |
| 1778155502 | 13.33° C | 61% | 1017.8 hPa | 0 mm | 0.89 m/s, ° | - | - |
| 1778155203 | 13.89° C | 59% | 1017.9 hPa | 0 mm | 1.34 m/s, ° | - | - |
| 1778154902 | 14.44° C | 59% | 1017.8 hPa | 0 mm | 0.89 m/s, ° | - | - |
| 1778154602 | 15.56° C | 54% | 1017.9 hPa | 0 mm | 0.45 m/s, ° | - | - |
| 1778154303 | 15.56° C | 53% | 1017.9 hPa | 0 mm | 0.45 m/s, ° | - | - |
| 1778154002 | 15° C | 52% | 1017.8 hPa | 0 mm | 0.45 m/s, ° | - | - |
| 1778153702 | 15° C | 52% | 1017.8 hPa | 0 mm | 0.45 m/s, ° | - | - |
| 1778153402 | 15° C | 53% | 1017.8 hPa | 0 mm | 0.45 m/s, ° | - | - |
| 1778153103 | 14.44° C | 57% | 1017.9 hPa | 0 mm | 0 m/s | - | - |
| 1778152802 | 13.89° C | 59% | 1017.8 hPa | 0 mm | 0.89 m/s, ° | - | - |
| 1778152502 | 13.89° C | 61% | 1017.8 hPa | 0 mm | 1.34 m/s, ° | - | - |
| 1778152202 | 13.33° C | 60% | 1017.9 hPa | 0 mm | 0 m/s | - | - |
| 1778151903 | 13.33° C | 61% | 1017.9 hPa | 0 mm | 0.45 m/s, ° | - | - |
| 1778151603 | 13.33° C | 64% | 1017.8 hPa | 0 mm | 1.34 m/s, ° | - | - |
| 1778151302 | 13.33° C | 64% | 1017.8 hPa | 0 mm | 0.89 m/s, ° | - | - |
| 1778151002 | 13.33° C | 65% | 1017.8 hPa | 0 mm | 0.89 m/s, ° | - | - |
| 1778150703 | 13.33° C | 65% | 1017.8 hPa | 0 mm | 0 m/s | - | - |
| 1778150402 | 13.33° C | 65% | 1017.8 hPa | 0 mm | 0.45 m/s, ° | - | - |
| 1778150102 | 12.78° C | 64% | 1017.9 hPa | 0 mm | 0.45 m/s, ° | - | - |
* Rain latest hour (hover to see other rain measurements)
** Current wind speed in m/s (hover to see current wind gust speed)